sensor_id;sensor_type;location;lat;lon;timestamp;pressure;altitude;pressure_sealevel;temperature;humidity
7524;BME280;3803;51.666;7.630;2023-02-15T00:00:15;102342.31;;;2.53;66.02
7524;BME280;3803;51.666;7.630;2023-02-15T00:00:35;102341.00;;;2.48;66.05
7524;BME280;3803;51.666;7.630;2023-02-15T00:01:08;102329.78;;;2.48;66.07
7524;BME280;3803;51.666;7.630;2023-02-15T00:01:29;102336.13;;;2.51;65.99
7524;BME280;3803;51.666;7.630;2023-02-15T00:01:50;102338.84;;;2.53;66.00
7524;BME280;3803;51.666;7.630;2023-02-15T00:02:12;102325.31;;;2.45;65.73
7524;BME280;3803;51.666;7.630;2023-02-15T00:02:32;102337.81;;;2.51;65.80
7524;BME280;3803;51.666;7.630;2023-02-15T00:02:53;102332.25;;;2.46;66.16
7524;BME280;3803;51.666;7.630;2023-02-15T00:03:16;102323.06;;;2.39;66.02
7524;BME280;3803;51.666;7.630;2023-02-15T00:03:37;102327.59;;;2.42;65.95
7524;BME280;3803;51.666;7.630;2023-02-15T00:03:57;102319.47;;;2.37;66.31
7524;BME280;3803;51.666;7.630;2023-02-15T00:04:21;102320.50;;;2.39;66.10
7524;BME280;3803;51.666;7.630;2023-02-15T00:04:42;102325.66;;;2.39;66.41
7524;BME280;3803;51.666;7.630;2023-02-15T00:05:08;102318.69;;;2.38;66.16
7524;BME280;3803;51.666;7.630;2023-02-15T00:05:30;102326.34;;;2.47;66.36
7524;BME280;3803;51.666;7.630;2023-02-15T00:05:51;102323.34;;;2.42;66.06
7524;BME280;3803;51.666;7.630;2023-02-15T00:06:12;102320.78;;;2.42;65.97
7524;BME280;3803;51.666;7.630;2023-02-15T00:06:33;102319.88;;;2.42;66.03
7524;BME280;3803;51.666;7.630;2023-02-15T00:06:54;102308.28;;;2.37;66.11
7524;BME280;3803;51.666;7.630;2023-02-15T00:07:16;102323.34;;;2.42;66.14
7524;BME280;3803;51.666;7.630;2023-02-15T00:07:37;102326.19;;;2.45;66.40
7524;BME280;3803;51.666;7.630;2023-02-15T00:07:57;102311.75;;;2.37;66.11
7524;BME280;3803;51.666;7.630;2023-02-15T00:08:18;102321.28;;;2.38;66.04
7524;BME280;3803;51.666;7.630;2023-02-15T00:08:39;102317.91;;;2.39;66.24
7524;BME280;3803;51.666;7.630;2023-02-15T00:09:00;102321.56;;;2.41;66.27
7524;BME280;3803;51.666;7.630;2023-02-15T00:09:21;102312.50;;;2.36;66.52
7524;BME280;3803;51.666;7.630;2023-02-15T00:09:41;102325.94;;;2.42;66.14
7524;BME280;3803;51.666;7.630;2023-02-15T00:10:02;102326.03;;;2.44;66.16
7524;BME280;3803;51.666;7.630;2023-02-15T00:10:23;102320.16;;;2.45;66.35
7524;BME280;3803;51.666;7.630;2023-02-15T00:10:43;102313.53;;;2.38;66.01
7524;BME280;3803;51.666;7.630;2023-02-15T00:12:13;102314.84;;;2.43;66.31
7524;BME280;3803;51.666;7.630;2023-02-15T00:12:34;102324.38;;;2.44;66.21
7524;BME280;3803;51.666;7.630;2023-02-15T00:12:55;102323.59;;;2.45;66.66
7524;BME280;3803;51.666;7.630;2023-02-15T00:13:15;102307.34;;;2.36;66.23
7524;BME280;3803;51.666;7.630;2023-02-15T00:13:36;102324.25;;;2.43;66.10
7524;BME280;3803;51.666;7.630;2023-02-15T00:13:59;102315.88;;;2.35;66.28
7524;BME280;3803;51.666;7.630;2023-02-15T00:14:23;102319.72;;;2.40;66.08
7524;BME280;3803;51.666;7.630;2023-02-15T00:14:44;102317.03;;;2.39;66.22
7524;BME280;3803;51.666;7.630;2023-02-15T00:15:04;102323.22;;;2.41;66.17
7524;BME280;3803;51.666;7.630;2023-02-15T00:15:25;102319.59;;;2.39;66.29
7524;BME280;3803;51.666;7.630;2023-02-15T00:15:46;102329.16;;;2.40;66.13
7524;BME280;3803;51.666;7.630;2023-02-15T00:16:09;102310.44;;;2.32;66.34
7524;BME280;3803;51.666;7.630;2023-02-15T00:16:30;102322.19;;;2.39;66.37
7524;BME280;3803;51.666;7.630;2023-02-15T00:16:52;102318.31;;;2.34;66.11
7524;BME280;3803;51.666;7.630;2023-02-15T00:17:13;102313.78;;;2.31;66.19
7524;BME280;3803;51.666;7.630;2023-02-15T00:17:34;102321.66;;;2.32;66.22
7524;BME280;3803;51.666;7.630;2023-02-15T00:17:56;102309.25;;;2.28;66.29
7524;BME280;3803;51.666;7.630;2023-02-15T00:18:22;102331.31;;;2.35;66.03
7524;BME280;3803;51.666;7.630;2023-02-15T00:18:43;102314.16;;;2.25;65.84
7524;BME280;3803;51.666;7.630;2023-02-15T00:19:04;102318.69;;;2.28;66.24
7524;BME280;3803;51.666;7.630;2023-02-15T00:19:25;102331.03;;;2.32;66.50
7524;BME280;3803;51.666;7.630;2023-02-15T00:19:46;102325.63;;;2.29;66.27
7524;BME280;3803;51.666;7.630;2023-02-15T00:20:07;102320.22;;;2.26;66.04
7524;BME280;3803;51.666;7.630;2023-02-15T00:20:28;102317.88;;;2.18;66.05
7524;BME280;3803;51.666;7.630;2023-02-15T00:20:48;102320.72;;;2.22;66.16
7524;BME280;3803;51.666;7.630;2023-02-15T00:21:09;102322.41;;;2.21;66.21
7524;BME280;3803;51.666;7.630;2023-02-15T00:21:32;102317.59;;;2.15;66.33
7524;BME280;3803;51.666;7.630;2023-02-15T00:21:53;102318.66;;;2.17;66.19
7524;BME280;3803;51.666;7.630;2023-02-15T00:22:14;102311.41;;;2.13;66.15
7524;BME280;3803;51.666;7.630;2023-02-15T00:22:35;102329.84;;;2.18;66.40
7524;BME280;3803;51.666;7.630;2023-02-15T00:22:55;102314.50;;;2.09;66.41
7524;BME280;3803;51.666;7.630;2023-02-15T00:23:16;102320.84;;;2.13;65.97
7524;BME280;3803;51.666;7.630;2023-02-15T00:23:37;102321.72;;;2.13;66.20
7524;BME280;3803;51.666;7.630;2023-02-15T00:24:00;102319.00;;;2.12;66.35
7524;BME280;3803;51.666;7.630;2023-02-15T00:24:21;102317.97;;;2.10;66.32
7524;BME280;3803;51.666;7.630;2023-02-15T00:24:41;102306.50;;;2.06;66.70
7524;BME280;3803;51.666;7.630;2023-02-15T00:25:02;102323.66;;;2.16;66.38
7524;BME280;3803;51.666;7.630;2023-02-15T00:25:23;102313.44;;;2.07;66.46
7524;BME280;3803;51.666;7.630;2023-02-15T00:25:43;102311.66;;;2.06;66.19
7524;BME280;3803;51.666;7.630;2023-02-15T00:26:09;102321.22;;;2.17;66.52
7524;BME280;3803;51.666;7.630;2023-02-15T00:26:31;102310.63;;;2.14;66.06
7524;BME280;3803;51.666;7.630;2023-02-15T00:26:52;102311.41;;;2.13;66.20
7524;BME280;3803;51.666;7.630;2023-02-15T00:27:12;102306.88;;;2.11;66.17
7524;BME280;3803;51.666;7.630;2023-02-15T00:27:33;102323.81;;;2.17;66.19
7524;BME280;3803;51.666;7.630;2023-02-15T00:27:56;102307.03;;;2.12;66.37
7524;BME280;3803;51.666;7.630;2023-02-15T00:28:26;102298.53;;;2.13;66.37
7524;BME280;3803;51.666;7.630;2023-02-15T00:28:47;102312.84;;;2.20;66.22
7524;BME280;3803;51.666;7.630;2023-02-15T00:29:09;102312.72;;;2.18;66.09
7524;BME280;3803;51.666;7.630;2023-02-15T00:29:30;102299.56;;;2.15;65.90
7524;BME280;3803;51.666;7.630;2023-02-15T00:29:51;102296.97;;;2.15;66.25
7524;BME280;3803;51.666;7.630;2023-02-15T00:30:12;102303.44;;;2.21;66.29
7524;BME280;3803;51.666;7.630;2023-02-15T00:31:42;102305.78;;;2.17;66.25
7524;BME280;3803;51.666;7.630;2023-02-15T00:32:04;102314.53;;;2.20;66.45
7524;BME280;3803;51.666;7.630;2023-02-15T00:32:25;102311.81;;;2.18;66.11
7524;BME280;3803;51.666;7.630;2023-02-15T00:32:47;102307.97;;;2.13;66.27
7524;BME280;3803;51.666;7.630;2023-02-15T00:33:08;102306.50;;;2.16;66.23
7524;BME280;3803;51.666;7.630;2023-02-15T00:33:29;102305.50;;;2.14;66.24
7524;BME280;3803;51.666;7.630;2023-02-15T00:33:49;102308.06;;;2.14;65.97
7524;BME280;3803;51.666;7.630;2023-02-15T00:34:18;102304.22;;;2.09;66.37
7524;BME280;3803;51.666;7.630;2023-02-15T00:34:39;102305.22;;;2.11;65.97
7524;BME280;3803;51.666;7.630;2023-02-15T00:35:00;102304.31;;;2.11;66.13
7524;BME280;3803;51.666;7.630;2023-02-15T00:35:21;102301.63;;;2.09;66.04
7524;BME280;3803;51.666;7.630;2023-02-15T00:35:41;102300.09;;;2.11;66.30
7524;BME280;3803;51.666;7.630;2023-02-15T00:36:03;102300.09;;;2.11;66.35
7524;BME280;3803;51.666;7.630;2023-02-15T00:36:24;102299.78;;;2.08;66.18
7524;BME280;3803;51.666;7.630;2023-02-15T00:36:49;102303.44;;;2.10;66.41
7524;BME280;3803;51.666;7.630;2023-02-15T00:37:09;102306.13;;;2.12;66.31
7524;BME280;3803;51.666;7.630;2023-02-15T00:37:30;102303.44;;;2.10;66.41
7524;BME280;3803;51.666;7.630;2023-02-15T00:37:51;102309.63;;;2.12;65.98
7524;BME280;3803;51.666;7.630;2023-02-15T00:38:12;102298.78;;;2.06;66.44
7524;BME280;3803;51.666;7.630;2023-02-15T00:38:34;102297.75;;;2.04;66.00
7524;BME280;3803;51.666;7.630;2023-02-15T00:38:54;102304.06;;;2.08;66.01
7524;BME280;3803;51.666;7.630;2023-02-15T00:39:16;102302.88;;;2.04;66.35
7524;BME280;3803;51.666;7.630;2023-02-15T00:39:38;102294.91;;;2.01;66.38
7524;BME280;3803;51.666;7.630;2023-02-15T00:40:00;102299.78;;;2.08;66.06
7524;BME280;3803;51.666;7.630;2023-02-15T00:40:20;102306.25;;;2.03;65.94
7524;BME280;3803;51.666;7.630;2023-02-15T00:40:41;102294.63;;;1.98;66.35
7524;BME280;3803;51.666;7.630;2023-02-15T00:41:03;102299.50;;;1.95;65.96
7524;BME280;3803;51.666;7.630;2023-02-15T00:41:24;102298.44;;;1.93;66.16
7524;BME280;3803;51.666;7.630;2023-02-15T00:41:46;102295.38;;;1.97;66.20
7524;BME280;3803;51.666;7.630;2023-02-15T00:42:07;102296.53;;;1.90;66.11
7524;BME280;3803;51.666;7.630;2023-02-15T00:42:27;102308.00;;;1.94;66.09
7524;BME280;3803;51.666;7.630;2023-02-15T00:42:48;102296.13;;;1.85;66.48
7524;BME280;3803;51.666;7.630;2023-02-15T00:43:09;102303.50;;;1.91;66.34
7524;BME280;3803;51.666;7.630;2023-02-15T00:43:31;102295.22;;;1.85;66.32
7524;BME280;3803;51.666;7.630;2023-02-15T00:43:52;102290.97;;;1.85;66.17
7524;BME280;3803;51.666;7.630;2023-02-15T00:44:14;102299.88;;;1.89;66.57
7524;BME280;3803;51.666;7.630;2023-02-15T00:44:35;102304.38;;;1.91;66.57
7524;BME280;3803;51.666;7.630;2023-02-15T00:44:55;102301.28;;;1.85;66.17
7524;BME280;3803;51.666;7.630;2023-02-15T00:45:16;102310.28;;;1.90;66.42
7524;BME280;3803;51.666;7.630;2023-02-15T00:45:37;102301.28;;;1.85;66.40
7524;BME280;3803;51.666;7.630;2023-02-15T00:45:58;102296.94;;;1.95;66.60
7524;BME280;3803;51.666;7.630;2023-02-15T00:46:18;102309.06;;;2.06;66.10
7524;BME280;3803;51.666;7.630;2023-02-15T00:46:40;102292.59;;;2.04;66.07
7524;BME280;3803;51.666;7.630;2023-02-15T00:47:03;102305.22;;;2.11;65.75
7524;BME280;3803;51.666;7.630;2023-02-15T00:47:23;102295.81;;;2.12;65.73
7524;BME280;3803;51.666;7.630;2023-02-15T00:47:45;102295.69;;;2.10;65.83
7524;BME280;3803;51.666;7.630;2023-02-15T00:48:06;102303.84;;;2.15;65.62
7524;BME280;3803;51.666;7.630;2023-02-15T00:48:26;102311.94;;;2.20;65.62
7524;BME280;3803;51.666;7.630;2023-02-15T00:48:47;102293.38;;;2.13;65.59
7524;BME280;3803;51.666;7.630;2023-02-15T00:49:08;102304.84;;;2.17;65.47
7524;BME280;3803;51.666;7.630;2023-02-15T00:49:29;102310.56;;;2.23;65.08
7524;BME280;3803;51.666;7.630;2023-02-15T00:49:50;102306.03;;;2.21;65.49
7524;BME280;3803;51.666;7.630;2023-02-15T00:50:10;102298.31;;;2.21;65.54
7524;BME280;3803;51.666;7.630;2023-02-15T00:50:32;102306.03;;;2.21;65.52
7524;BME280;3803;51.666;7.630;2023-02-15T00:50:55;102305.25;;;2.22;65.60
7524;BME280;3803;51.666;7.630;2023-02-15T00:51:17;102303.59;;;2.22;65.45
7524;BME280;3803;51.666;7.630;2023-02-15T00:51:38;102305.53;;;2.25;65.54
7524;BME280;3803;51.666;7.630;2023-02-15T00:51:59;102304.22;;;2.20;65.04
7524;BME280;3803;51.666;7.630;2023-02-15T00:52:21;102301.13;;;2.24;65.10
7524;BME280;3803;51.666;7.630;2023-02-15T00:52:42;102302.06;;;2.24;65.11
7524;BME280;3803;51.666;7.630;2023-02-15T00:53:02;102286.34;;;2.21;65.38
7524;BME280;3803;51.666;7.630;2023-02-15T00:53:24;102307.75;;;2.30;64.91
7524;BME280;3803;51.666;7.630;2023-02-15T00:53:44;102283.63;;;2.20;65.08
7524;BME280;3803;51.666;7.630;2023-02-15T00:54:05;102292.38;;;2.22;64.92
7524;BME280;3803;51.666;7.630;2023-02-15T00:54:26;102289.03;;;2.23;65.36
7524;BME280;3803;51.666;7.630;2023-02-15T00:54:47;102289.78;;;2.22;65.41
7524;BME280;3803;51.666;7.630;2023-02-15T00:55:07;102290.81;;;2.24;64.97
7524;BME280;3803;51.666;7.630;2023-02-15T00:55:28;102296.25;;;2.27;64.88
7524;BME280;3803;51.666;7.630;2023-02-15T00:55:50;102289.31;;;2.26;65.09
7524;BME280;3803;51.666;7.630;2023-02-15T00:56:11;102282.59;;;2.17;64.87
7524;BME280;3803;51.666;7.630;2023-02-15T00:56:31;102276.03;;;2.21;64.97
7524;BME280;3803;51.666;7.630;2023-02-15T00:56:52;102305.94;;;2.29;64.80
7524;BME280;3803;51.666;7.630;2023-02-15T00:57:12;102298.06;;;2.28;64.80
7524;BME280;3803;51.666;7.630;2023-02-15T00:57:33;102282.44;;;2.16;65.15
7524;BME280;3803;51.666;7.630;2023-02-15T00:57:54;102299.06;;;2.20;64.87
7524;BME280;3803;51.666;7.630;2023-02-15T00:58:15;102292.13;;;2.18;64.76
7524;BME280;3803;51.666;7.630;2023-02-15T00:58:36;102281.28;;;2.12;65.21
7524;BME280;3803;51.666;7.630;2023-02-15T00:58:57;102288.47;;;2.16;65.03
7524;BME280;3803;51.666;7.630;2023-02-15T00:59:17;102298.31;;;2.21;64.81
7524;BME280;3803;51.666;7.630;2023-02-15T00:59:38;102303.19;;;2.17;65.12
7524;BME280;3803;51.666;7.630;2023-02-15T00:59:59;102289.50;;;2.08;64.97
7524;BME280;3803;51.666;7.630;2023-02-15T01:00:19;102295.69;;;2.10;65.19
7524;BME280;3803;51.666;7.630;2023-02-15T01:00:42;102293.91;;;2.09;65.03
7524;BME280;3803;51.666;7.630;2023-02-15T01:01:06;102306.25;;;2.13;65.21
7524;BME280;3803;51.666;7.630;2023-02-15T01:01:27;102305.38;;;2.13;65.25
7524;BME280;3803;51.666;7.630;2023-02-15T01:01:47;102303.69;;;2.13;65.36
7524;BME280;3803;51.666;7.630;2023-02-15T01:02:08;102302.25;;;2.07;65.26
7524;BME280;3803;51.666;7.630;2023-02-15T01:02:29;102296.97;;;2.05;65.39
7524;BME280;3803;51.666;7.630;2023-02-15T01:02:52;102316.41;;;2.12;65.27
7524;BME280;3803;51.666;7.630;2023-02-15T01:03:14;102302.38;;;2.08;65.06
7524;BME280;3803;51.666;7.630;2023-02-15T01:03:36;102307.53;;;2.08;65.23
7524;BME280;3803;51.666;7.630;2023-02-15T01:03:57;102299.53;;;2.05;65.31
7524;BME280;3803;51.666;7.630;2023-02-15T01:04:18;102311.38;;;2.03;64.92
7524;BME280;3803;51.666;7.630;2023-02-15T01:04:38;102303.50;;;2.01;65.04
7524;BME280;3803;51.666;7.630;2023-02-15T01:04:59;102312.94;;;2.01;65.02
7524;BME280;3803;51.666;7.630;2023-02-15T01:05:19;102297.97;;;1.97;65.54
7524;BME280;3803;51.666;7.630;2023-02-15T01:05:40;102301.56;;;1.99;65.13
7524;BME280;3803;51.666;7.630;2023-02-15T01:06:01;102305.06;;;1.99;65.20
7524;BME280;3803;51.666;7.630;2023-02-15T01:06:22;102298.75;;;1.96;65.37
7524;BME280;3803;51.666;7.630;2023-02-15T01:06:43;102308.41;;;1.98;65.11
7524;BME280;3803;51.666;7.630;2023-02-15T01:07:04;102302.09;;;1.95;65.39
7524;BME280;3803;51.666;7.630;2023-02-15T01:07:27;102303.50;;;1.91;65.27
7524;BME280;3803;51.666;7.630;2023-02-15T01:07:47;102304.25;;;1.90;65.18
7524;BME280;3803;51.666;7.630;2023-02-15T01:08:09;102314.19;;;1.96;65.51
7524;BME280;3803;51.666;7.630;2023-02-15T01:08:32;102305.91;;;1.89;65.18
7524;BME280;3803;51.666;7.630;2023-02-15T01:08:52;102303.19;;;1.88;65.59
7524;BME280;3803;51.666;7.630;2023-02-15T01:09:13;102305.91;;;1.89;65.32
7524;BME280;3803;51.666;7.630;2023-02-15T01:09:33;102304.66;;;1.95;65.42
7524;BME280;3803;51.666;7.630;2023-02-15T01:09:54;102314.19;;;1.96;65.60
7524;BME280;3803;51.666;7.630;2023-02-15T01:10:15;102309.81;;;1.95;65.40
7524;BME280;3803;51.666;7.630;2023-02-15T01:10:36;102307.88;;;1.92;65.69
7524;BME280;3803;51.666;7.630;2023-02-15T01:10:56;102295.13;;;1.94;65.70
7524;BME280;3803;51.666;7.630;2023-02-15T01:11:21;102303.88;;;1.96;65.44
7524;BME280;3803;51.666;7.630;2023-02-15T01:11:42;102293.31;;;1.93;65.36
7524;BME280;3803;51.666;7.630;2023-02-15T01:12:03;102304.38;;;1.91;65.24
7524;BME280;3803;51.666;7.630;2023-02-15T01:12:23;102286.88;;;1.87;65.50
7524;BME280;3803;51.666;7.630;2023-02-15T01:12:44;102288.66;;;1.88;65.30
7524;BME280;3803;51.666;7.630;2023-02-15T01:13:04;102292.16;;;1.89;65.50
7524;BME280;3803;51.666;7.630;2023-02-15T01:13:27;102297.16;;;1.87;65.40
7524;BME280;3803;51.666;7.630;2023-02-15T01:13:50;102302.56;;;1.90;65.74
7524;BME280;3803;51.666;7.630;2023-02-15T01:14:11;102300.91;;;1.91;65.50
7524;BME280;3803;51.666;7.630;2023-02-15T01:14:33;102301.53;;;1.88;65.39
7524;BME280;3803;51.666;7.630;2023-02-15T01:14:54;102300.63;;;1.88;65.80
7524;BME280;3803;51.666;7.630;2023-02-15T01:15:22;102293.41;;;1.84;65.99
7524;BME280;3803;51.666;7.630;2023-02-15T01:15:44;102291.63;;;1.83;65.71
7524;BME280;3803;51.666;7.630;2023-02-15T01:16:04;102296.25;;;1.87;65.37
7524;BME280;3803;51.666;7.630;2023-02-15T01:16:27;102312.38;;;1.95;65.59
7524;BME280;3803;51.666;7.630;2023-02-15T01:16:48;102304.88;;;1.87;65.43
7524;BME280;3803;51.666;7.630;2023-02-15T01:17:08;102295.22;;;1.85;65.75
7524;BME280;3803;51.666;7.630;2023-02-15T01:17:30;102301.03;;;1.93;65.40
7524;BME280;3803;51.666;7.630;2023-02-15T01:17:51;102297.94;;;1.86;65.72
7524;BME280;3803;51.666;7.630;2023-02-15T01:18:13;102284.66;;;1.82;65.54
7524;BME280;3803;51.666;7.630;2023-02-15T01:18:34;102312.09;;;1.91;65.53
7524;BME280;3803;51.666;7.630;2023-02-15T01:18:55;102300.75;;;1.89;65.48
7524;BME280;3803;51.666;7.630;2023-02-15T01:19:16;102290.69;;;1.82;65.33
7524;BME280;3803;51.666;7.630;2023-02-15T01:19:36;102293.66;;;1.87;65.68
7524;BME280;3803;51.666;7.630;2023-02-15T01:19:57;102310.44;;;1.92;65.58
7524;BME280;3803;51.666;7.630;2023-02-15T01:20:25;102311.47;;;1.94;65.64
7524;BME280;3803;51.666;7.630;2023-02-15T01:20:46;102299.44;;;1.84;65.41
7524;BME280;3803;51.666;7.630;2023-02-15T01:21:13;102298.81;;;1.87;65.81
7524;BME280;3803;51.666;7.630;2023-02-15T01:21:37;102292.50;;;1.83;65.39
7524;BME280;3803;51.666;7.630;2023-02-15T01:21:58;102298.81;;;1.87;65.62
7524;BME280;3803;51.666;7.630;2023-02-15T01:22:19;102290.69;;;1.82;65.66
7524;BME280;3803;51.666;7.630;2023-02-15T01:22:39;102298.03;;;1.88;65.55
7524;BME280;3803;51.666;7.630;2023-02-15T01:23:00;102296.13;;;1.85;65.25
7524;BME280;3803;51.666;7.630;2023-02-15T01:23:21;102297.94;;;1.86;65.34
7524;BME280;3803;51.666;7.630;2023-02-15T01:23:42;102297.78;;;1.85;65.38
7524;BME280;3803;51.666;7.630;2023-02-15T01:24:03;102286.84;;;1.77;65.34
7524;BME280;3803;51.666;7.630;2023-02-15T01:24:24;102307.47;;;1.87;65.50
7524;BME280;3803;51.666;7.630;2023-02-15T01:25:16;102302.31;;;1.87;65.49
7524;BME280;3803;51.666;7.630;2023-02-15T01:25:42;102291.22;;;1.78;65.42
7524;BME280;3803;51.666;7.630;2023-02-15T01:26:04;102294.97;;;1.82;65.23
7524;BME280;3803;51.666;7.630;2023-02-15T01:26:25;102287.09;;;1.80;65.63
7524;BME280;3803;51.666;7.630;2023-02-15T01:26:46;102294.28;;;1.84;65.54
7524;BME280;3803;51.666;7.630;2023-02-15T01:27:06;102286.31;;;1.81;65.69
7524;BME280;3803;51.666;7.630;2023-02-15T01:27:27;102291.31;;;1.80;65.57
7524;BME280;3803;51.666;7.630;2023-02-15T01:27:50;102296.00;;;1.84;65.34
7524;BME280;3803;51.666;7.630;2023-02-15T01:28:11;102296.13;;;1.85;65.54
7524;BME280;3803;51.666;7.630;2023-02-15T01:28:33;102304.13;;;1.88;65.18
7524;BME280;3803;51.666;7.630;2023-02-15T01:28:56;102299.44;;;1.84;65.34
7524;BME280;3803;51.666;7.630;2023-02-15T01:29:17;102287.88;;;1.79;65.30
7524;BME280;3803;51.666;7.630;2023-02-15T01:29:37;102295.84;;;1.82;65.56
7524;BME280;3803;51.666;7.630;2023-02-15T01:29:58;102301.00;;;1.82;65.31
7524;BME280;3803;51.666;7.630;2023-02-15T01:30:19;102300.09;;;1.82;65.11
7524;BME280;3803;51.666;7.630;2023-02-15T01:30:39;102295.59;;;1.79;65.28
7524;BME280;3803;51.666;7.630;2023-02-15T01:31:07;102295.59;;;1.79;65.44
7524;BME280;3803;51.666;7.630;2023-02-15T01:31:28;102297.38;;;1.80;65.30
7524;BME280;3803;51.666;7.630;2023-02-15T01:31:49;102286.41;;;1.72;65.30
7524;BME280;3803;51.666;7.630;2023-02-15T01:32:09;102303.31;;;1.79;65.45
7524;BME280;3803;51.666;7.630;2023-02-15T01:32:30;102298.94;;;1.78;65.58
7524;BME280;3803;51.666;7.630;2023-02-15T01:32:51;102301.50;;;1.78;65.53
7524;BME280;3803;51.666;7.630;2023-02-15T01:33:12;102296.97;;;1.75;65.47
7524;BME280;3803;51.666;7.630;2023-02-15T01:33:39;102297.25;;;1.79;65.64
7524;BME280;3803;51.666;7.630;2023-02-15T01:34:00;102294.41;;;1.75;65.63
7524;BME280;3803;51.666;7.630;2023-02-15T01:34:21;102293.22;;;1.72;65.53
7524;BME280;3803;51.666;7.630;2023-02-15T01:34:41;102292.31;;;1.71;65.48
7524;BME280;3803;51.666;7.630;2023-02-15T01:35:02;102297.13;;;1.77;65.60
7524;BME280;3803;51.666;7.630;2023-02-15T01:35:24;102289.88;;;1.73;65.48
7524;BME280;3803;51.666;7.630;2023-02-15T01:35:45;102298.63;;;1.75;65.54
7524;BME280;3803;51.666;7.630;2023-02-15T01:36:06;102294.41;;;1.75;65.51
7524;BME280;3803;51.666;7.630;2023-02-15T01:36:27;102288.09;;;1.72;65.15
7524;BME280;3803;51.666;7.630;2023-02-15T01:36:48;102298.94;;;1.78;65.22
7524;BME280;3803;51.666;7.630;2023-02-15T01:37:09;102280.22;;;1.70;65.45
7524;BME280;3803;51.666;7.630;2023-02-15T01:37:31;102290.16;;;1.76;65.52
7524;BME280;3803;51.666;7.630;2023-02-15T01:37:52;102301.34;;;1.76;65.40
7524;BME280;3803;51.666;7.630;2023-02-15T01:38:14;102290.91;;;1.75;65.25
7524;BME280;3803;51.666;7.630;2023-02-15T01:38:35;102292.72;;;1.76;65.38
7524;BME280;3803;51.666;7.630;2023-02-15T01:38:55;102291.69;;;1.74;65.13
7524;BME280;3803;51.666;7.630;2023-02-15T01:39:16;102284.75;;;1.73;65.58
7524;BME280;3803;51.666;7.630;2023-02-15T01:39:37;102279.72;;;1.74;65.37
7524;BME280;3803;51.666;7.630;2023-02-15T01:39:57;102275.34;;;1.73;65.35
7524;BME280;3803;51.666;7.630;2023-02-15T01:40:20;102281.69;;;1.77;65.36
7524;BME280;3803;51.666;7.630;2023-02-15T01:40:51;102270.31;;;1.75;65.42
7524;BME280;3803;51.666;7.630;2023-02-15T01:41:13;102285.34;;;2.00;64.91
7524;BME280;3803;51.666;7.630;2023-02-15T01:41:47;102286.09;;;1.88;64.89
7524;BME280;3803;51.666;7.630;2023-02-15T01:42:11;102284.50;;;1.80;65.09
7524;BME280;3803;51.666;7.630;2023-02-15T01:42:32;102298.16;;;1.79;65.03
7524;BME280;3803;51.666;7.630;2023-02-15T01:42:54;102281.41;;;1.74;65.04
7524;BME280;3803;51.666;7.630;2023-02-15T01:43:15;102295.59;;;1.79;65.24
7524;BME280;3803;51.666;7.630;2023-02-15T01:43:42;102277.50;;;1.69;65.14
7524;BME280;3803;51.666;7.630;2023-02-15T01:45:35;102276.22;;;1.63;65.46
7524;BME280;3803;51.666;7.630;2023-02-15T01:45:56;102285.09;;;1.67;65.41
7524;BME280;3803;51.666;7.630;2023-02-15T01:46:19;102277.25;;;1.66;65.18
7524;BME280;3803;51.666;7.630;2023-02-15T01:46:51;102277.75;;;1.61;64.82
7524;BME280;3803;51.666;7.630;2023-02-15T01:48:22;102286.00;;;1.68;65.38
7524;BME280;3803;51.666;7.630;2023-02-15T01:48:51;102287.28;;;1.62;65.34
7524;BME280;3803;51.666;7.630;2023-02-15T01:49:16;102281.63;;;1.67;65.25
7524;BME280;3803;51.666;7.630;2023-02-15T01:49:39;102271.53;;;1.59;65.52
7524;BME280;3803;51.666;7.630;2023-02-15T01:50:28;102274.41;;;1.62;65.35
7524;BME280;3803;51.666;7.630;2023-02-15T01:50:53;102280.84;;;1.68;65.55
7524;BME280;3803;51.666;7.630;2023-02-15T01:51:17;102273.63;;;1.63;65.64
7524;BME280;3803;51.666;7.630;2023-02-15T01:51:43;102265.00;;;1.63;65.09
7524;BME280;3803;51.666;7.630;2023-02-15T01:52:06;102264.88;;;1.61;65.35
7524;BME280;3803;51.666;7.630;2023-02-15T01:52:27;102280.84;;;1.68;65.21
7524;BME280;3803;51.666;7.630;2023-02-15T01:52:58;102278.41;;;1.69;65.33
7524;BME280;3803;51.666;7.630;2023-02-15T01:53:29;102271.22;;;1.65;65.45
7524;BME280;3803;51.666;7.630;2023-02-15T01:54:01;102279.59;;;1.73;65.54
7524;BME280;3803;51.666;7.630;2023-02-15T01:54:29;102279.84;;;1.76;65.71
7524;BME280;3803;51.666;7.630;2023-02-15T01:54:51;102270.53;;;1.68;65.39
7524;BME280;3803;51.666;7.630;2023-02-15T01:55:12;102273.66;;;1.74;65.31
7524;BME280;3803;51.666;7.630;2023-02-15T01:55:40;102258.44;;;1.67;65.38
7524;BME280;3803;51.666;7.630;2023-02-15T01:56:16;102286.53;;;1.74;65.37
7524;BME280;3803;51.666;7.630;2023-02-15T01:56:42;102267.09;;;1.67;65.45
7524;BME280;3803;51.666;7.630;2023-02-15T01:57:06;102279.59;;;1.73;65.21
7524;BME280;3803;51.666;7.630;2023-02-15T01:57:30;102277.78;;;1.72;65.29
7524;BME280;3803;51.666;7.630;2023-02-15T01:57:51;102269.66;;;1.67;65.28
7524;BME280;3803;51.666;7.630;2023-02-15T01:58:13;102272.09;;;1.66;65.14
7524;BME280;3803;51.666;7.630;2023-02-15T01:58:35;102264.09;;;1.62;65.06
7524;BME280;3803;51.666;7.630;2023-02-15T01:58:59;102274.81;;;1.67;65.16
7524;BME280;3803;51.666;7.630;2023-02-15T01:59:23;102268.47;;;1.63;65.27
7524;BME280;3803;51.666;7.630;2023-02-15T01:59:48;102267.47;;;1.61;65.17
7524;BME280;3803;51.666;7.630;2023-02-15T02:00:11;102272.09;;;1.66;65.12
7524;BME280;3803;51.666;7.630;2023-02-15T02:00:35;102276.47;;;1.67;64.99
7524;BME280;3803;51.666;7.630;2023-02-15T02:00:59;102271.84;;;1.62;65.09
7524;BME280;3803;51.666;7.630;2023-02-15T02:01:20;102271.69;;;1.61;65.02
7524;BME280;3803;51.666;7.630;2023-02-15T02:01:52;102259.72;;;1.61;64.88
7524;BME280;3803;51.666;7.630;2023-02-15T02:02:16;102272.72;;;1.63;65.20
7524;BME280;3803;51.666;7.630;2023-02-15T02:02:43;102264.88;;;1.61;65.38
7524;BME280;3803;51.666;7.630;2023-02-15T02:03:05;102267.47;;;1.61;64.78
7524;BME280;3803;51.666;7.630;2023-02-15T02:04:21;102262.16;;;1.60;65.23
7524;BME280;3803;51.666;7.630;2023-02-15T02:04:48;102262.31;;;1.61;65.22
7524;BME280;3803;51.666;7.630;2023-02-15T02:05:12;102247.97;;;1.55;65.53
7524;BME280;3803;51.666;7.630;2023-02-15T02:05:33;102265.28;;;1.66;65.13
7524;BME280;3803;51.666;7.630;2023-02-15T02:05:53;102265.13;;;1.65;65.03
7524;BME280;3803;51.666;7.630;2023-02-15T02:06:14;102261.53;;;1.62;65.17
7524;BME280;3803;51.666;7.630;2023-02-15T02:06:36;102258.19;;;1.63;64.81